Time;durP1;ratioP1;P1;durP2;ratioP2;P2;SDS_P1;SDS_P2;PMS_P1;PMS_P2;Temp;Humidity;BMP_temperature;BMP_pressure;BME280_temperature;BME280_humidity;BME280_pressure;Samples;Min_cycle;Max_cycle;Signal;HPM_P1;HPM_P2
2021/07/25 00:01:38;;;;;;;1.77;0.63;;;12.90;87.40;;;;;;5021285;28;20190;-67
2021/07/25 00:04:06;;;;;;;1.27;0.63;;;12.90;83.40;;;;;;5023840;28;20683;-66
2021/07/25 00:06:33;;;;;;;1.93;0.53;;;12.90;84.00;;;;;;5033410;28;20161;-70
2021/07/25 00:09:00;;;;;;;2.20;0.70;;;12.80;82.10;;;;;;5033532;28;20644;-66
2021/07/25 00:11:28;;;;;;;2.23;0.70;;;12.90;81.90;;;;;;5034090;28;20231;-66
2021/07/25 00:13:58;;;;;;;2.60;0.80;;;12.90;81.20;;;;;;5031475;28;20189;-66
2021/07/25 00:16:25;;;;;;;0.70;0.60;;;12.90;78.70;;;;;;5027753;28;20209;-66
2021/07/25 00:18:52;;;;;;;1.03;0.60;;;12.80;79.00;;;;;;5016454;28;20688;-65
2021/07/25 00:21:20;;;;;;;2.63;1.37;;;12.90;79.00;;;;;;5032158;28;20649;-65
2021/07/25 00:23:49;;;;;;;1.53;0.73;;;13.00;77.70;;;;;;5015762;28;20222;-65
2021/07/25 00:26:25;;;;;;;3.23;0.70;;;13.00;77.70;;;;;;5028601;28;20733;-66
2021/07/25 00:28:52;;;;;;;1.73;0.70;;;13.20;76.60;;;;;;5033204;28;20195;-67
2021/07/25 00:31:20;;;;;;;1.53;0.70;;;13.30;75.00;;;;;;5029301;28;20212;-68
2021/07/25 00:33:49;;;;;;;2.50;0.60;;;13.30;74.20;;;;;;4999872;28;20189;-65
2021/07/25 00:36:16;;;;;;;2.70;0.80;;;13.20;74.10;;;;;;5025518;28;20217;-68
2021/07/25 00:38:43;;;;;;;2.00;0.80;;;13.20;73.30;;;;;;5022706;28;20234;-73
2021/07/25 00:41:16;;;;;;;4.03;0.80;;;13.30;73.70;;;;;;5033449;28;20224;-65
2021/07/25 00:43:45;;;;;;;1.30;0.80;;;13.20;72.10;;;;;;5021343;28;20589;-66
2021/07/25 00:46:14;;;;;;;4.30;0.80;;;13.40;73.90;;;;;;5029744;28;20196;-70
2021/07/25 00:48:42;;;;;;;1.63;0.90;;;13.50;73.70;;;;;;5023485;28;20180;-70
2021/07/25 00:51:11;;;;;;;1.80;0.73;;;13.40;71.30;;;;;;5032175;28;20239;-67
2021/07/25 00:53:41;;;;;;;0.50;0.50;;;13.40;71.00;;;;;;5033228;28;20177;-68
2021/07/25 00:56:10;;;;;;;2.00;0.70;;;13.50;72.00;;;;;;5033234;28;20631;-69
2021/07/25 00:58:42;;;;;;;1.33;0.60;;;13.60;72.40;;;;;;5022380;28;20189;-68
2021/07/25 01:01:11;;;;;;;2.00;0.90;;;13.80;73.00;;;;;;5025696;28;20224;-67
2021/07/25 01:03:53;;;;;;;0.70;0.70;;;13.70;71.50;;;;;;5033088;28;20259;-66
2021/07/25 01:06:41;;;;;;;5.10;0.60;;;13.90;70.90;;;;;;5027150;28;20216;-66
2021/07/25 01:09:33;;;;;;;3.63;0.70;;;13.70;68.90;;;;;;5027996;28;20524;-65
2021/07/25 01:12:06;;;;;;;0.50;0.50;;;13.80;69.60;;;;;;5032917;28;20185;-67
2021/07/25 01:14:39;;;;;;;0.80;0.60;;;13.90;68.50;;;;;;5032902;28;20176;-66
2021/07/25 01:17:29;;;;;;;2.67;0.50;;;14.00;68.00;;;;;;5032914;28;20180;-64
2021/07/25 01:20:02;;;;;;;3.40;0.77;;;13.90;67.80;;;;;;5032651;28;20303;-65
2021/07/25 01:22:42;;;;;;;1.30;0.50;;;14.10;68.00;;;;;;5027259;28;20200;-68
2021/07/25 01:25:12;;;;;;;1.37;0.70;;;14.10;67.40;;;;;;5032754;28;20210;-67
2021/07/25 01:27:50;;;;;;;0.97;0.50;;;14.00;67.30;;;;;;5030782;28;20211;-70
2021/07/25 01:30:21;;;;;;;1.67;0.70;;;14.10;66.90;;;;;;5031833;28;20540;-67
2021/07/25 01:32:54;;;;;;;2.07;0.70;;;14.30;66.20;;;;;;5032204;28;20243;-73
2021/07/25 01:35:23;;;;;;;0.83;0.50;;;14.30;66.50;;;;;;5032502;28;20184;-69
2021/07/25 01:37:52;;;;;;;1.40;0.60;;;14.40;66.50;;;;;;5032547;28;20673;-67
2021/07/25 01:40:24;;;;;;;0.40;0.40;;;14.50;65.80;;;;;;5032425;28;20227;-65
2021/07/25 01:42:52;;;;;;;0.63;0.40;;;14.40;65.80;;;;;;5016058;28;20184;-67
2021/07/25 01:45:20;;;;;;;0.57;0.40;;;14.40;66.10;;;;;;5028395;28;20187;-68
2021/07/25 01:47:48;;;;;;;0.67;0.43;;;14.50;66.60;;;;;;5032345;28;20527;-67
2021/07/25 01:50:16;;;;;;;1.03;0.40;;;14.50;66.60;;;;;;5032491;28;20185;-68
2021/07/25 01:52:45;;;;;;;1.63;0.63;;;14.50;66.50;;;;;;5030839;28;20727;-70
2021/07/25 01:55:12;;;;;;;1.80;0.50;;;14.70;66.20;;;;;;5032232;28;20248;-71
2021/07/25 01:57:40;;;;;;;1.50;0.43;;;14.70;65.40;;;;;;5029582;28;20754;-70
2021/07/25 02:00:09;;;;;;;0.80;0.80;;;14.70;65.70;;;;;;5019577;28;20192;-69
2021/07/25 02:02:36;;;;;;;2.23;0.57;;;14.80;65.50;;;;;;5031529;28;20180;-70
2021/07/25 02:05:07;;;;;;;0.70;0.60;;;14.80;65.40;;;;;;5027704;28;20537;-72
2021/07/25 02:07:34;;;;;;;0.73;0.50;;;14.80;64.90;;;;;;5031879;28;20185;-70
2021/07/25 02:10:02;;;;;;;1.03;0.50;;;14.70;65.50;;;;;;5014686;28;20644;-68
2021/07/25 02:12:29;;;;;;;1.07;0.60;;;14.80;65.20;;;;;;5032205;28;20177;-70
2021/07/25 02:14:56;;;;;;;1.43;0.50;;;15.10;65.10;;;;;;5025565;28;20195;-70
2021/07/25 02:17:24;;;;;;;1.43;0.70;;;15.30;65.30;;;;;;5028801;28;20569;-70
2021/07/25 02:19:51;;;;;;;0.50;0.40;;;15.40;65.90;;;;;;5027604;28;20200;-72
2021/07/25 02:22:18;;;;;;;1.73;0.50;;;15.50;64.30;;;;;;5023700;28;20189;-70
2021/07/25 02:24:46;;;;;;;0.60;0.50;;;15.40;64.20;;;;;;5022729;28;20181;-70
2021/07/25 02:27:13;;;;;;;1.43;0.50;;;15.50;64.70;;;;;;5031951;28;20208;-70
2021/07/25 02:29:40;;;;;;;2.43;0.50;;;15.50;64.40;;;;;;5020770;28;20799;-73
2021/07/25 02:32:08;;;;;;;1.33;0.57;;;15.80;64.70;;;;;;5020253;28;20238;-70
2021/07/25 02:34:36;;;;;;;1.03;0.53;;;15.70;62.70;;;;;;5022096;28;20260;-70
2021/07/25 02:37:05;;;;;;;1.30;0.70;;;15.20;63.10;;;;;;5020843;28;20188;-69
2021/07/25 02:39:32;;;;;;;0.50;0.50;;;15.20;63.90;;;;;;5017994;28;20197;-68
2021/07/25 02:41:59;;;;;;;0.40;0.40;;;14.80;64.20;;;;;;5015814;28;20276;-71
2021/07/25 02:44:27;;;;;;;0.87;0.50;;;14.80;64.90;;;;;;5021258;28;20197;-70
2021/07/25 02:46:54;;;;;;;0.67;0.50;;;15.00;64.10;;;;;;5017869;28;20185;-69
2021/07/25 02:49:22;;;;;;;0.77;0.50;;;15.50;64.70;;;;;;5017157;28;20180;-67
2021/07/25 02:51:50;;;;;;;1.20;0.50;;;16.10;63.30;;;;;;5024322;28;20209;-72
2021/07/25 02:54:17;;;;;;;0.53;0.40;;;16.00;63.20;;;;;;5019339;28;20188;-73
2021/07/25 02:56:45;;;;;;;1.00;0.50;;;15.40;63.80;;;;;;5020189;28;20271;-67
2021/07/25 02:59:12;;;;;;;1.37;0.50;;;15.50;64.30;;;;;;5020816;28;20664;-67
2021/07/25 03:01:39;;;;;;;0.50;0.50;;;15.50;63.40;;;;;;5027225;28;20299;-69
2021/07/25 03:04:07;;;;;;;2.30;0.60;;;15.80;63.60;;;;;;5024634;28;20185;-68
2021/07/25 03:06:34;;;;;;;2.40;0.50;;;15.90;62.70;;;;;;5018637;28;20596;-69
2021/07/25 03:09:01;;;;;;;1.37;0.50;;;16.10;62.30;;;;;;5017614;28;20184;-70
2021/07/25 03:11:29;;;;;;;1.80;0.50;;;16.30;62.30;;;;;;5020787;28;20296;-68
2021/07/25 03:13:56;;;;;;;1.23;0.60;;;16.40;61.80;;;;;;5017811;28;20216;-69
2021/07/25 03:16:23;;;;;;;0.60;0.40;;;16.70;62.60;;;;;;5019098;28;20189;-68
2021/07/25 03:18:51;;;;;;;0.93;0.60;;;16.60;60.90;;;;;;5021300;28;20582;-68
2021/07/25 03:21:18;;;;;;;2.20;0.60;;;16.60;62.10;;;;;;5024660;28;20259;-68
2021/07/25 03:23:45;;;;;;;1.17;0.60;;;16.80;60.50;;;;;;5025122;28;20181;-68
2021/07/25 03:26:13;;;;;;;0.40;0.40;;;16.50;60.40;;;;;;5021597;28;20184;-68
2021/07/25 03:28:40;;;;;;;1.10;0.60;;;16.20;60.30;;;;;;5027193;28;20184;-66
2021/07/25 03:31:07;;;;;;;2.53;0.43;;;16.00;61.00;;;;;;5026341;28;20227;-68
2021/07/25 03:33:35;;;;;;;1.13;0.63;;;15.90;60.90;;;;;;5019387;28;20216;-69
2021/07/25 03:36:02;;;;;;;0.60;0.40;;;16.20;60.40;;;;;;5028460;28;20672;-67
2021/07/25 03:38:29;;;;;;;1.23;0.50;;;16.60;58.90;;;;;;5021079;28;20599;-69
2021/07/25 03:41:02;;;;;;;0.43;0.40;;;16.30;59.00;;;;;;5024538;28;20219;-68
2021/07/25 03:43:33;;;;;;;2.20;0.50;;;16.50;58.60;;;;;;5028508;28;20216;-72
2021/07/25 03:46:02;;;;;;;0.50;0.50;;;16.60;58.40;;;;;;5021212;28;20184;-67
2021/07/25 03:48:30;;;;;;;2.30;0.60;;;16.30;59.60;;;;;;5020036;28;20201;-69
2021/07/25 03:50:57;;;;;;;2.13;0.57;;;16.20;57.90;;;;;;5023298;28;20189;-67
2021/07/25 03:53:25;;;;;;;1.20;0.70;;;16.60;58.20;;;;;;5023294;28;20662;-67
2021/07/25 03:55:52;;;;;;;1.03;0.53;;;16.60;57.40;;;;;;5022388;28;20190;-70
2021/07/25 03:58:20;;;;;;;0.83;0.50;;;16.30;56.10;;;;;;5030912;28;20562;-70
2021/07/25 04:00:47;;;;;;;1.23;0.80;;;15.70;56.60;;;;;;5028372;28;20220;-67
2021/07/25 04:03:14;;;;;;;1.90;0.60;;;15.00;57.80;;;;;;5021369;28;20216;-70
2021/07/25 04:05:42;;;;;;;2.10;0.50;;;15.50;58.90;;;;;;5027345;28;20789;-71
2021/07/25 04:08:10;;;;;;;2.00;0.60;;;16.10;57.60;;;;;;5028634;28;20190;-70
2021/07/25 04:10:43;;;;;;;1.30;0.53;;;16.20;57.10;;;;;;5033929;28;20230;-67
2021/07/25 04:13:11;;;;;;;1.00;0.50;;;15.80;57.90;;;;;;5032373;28;20535;-69
2021/07/25 04:15:43;;;;;;;0.73;0.40;;;15.20;58.70;;;;;;5033104;28;20176;-70
2021/07/25 04:18:10;;;;;;;1.80;0.50;;;14.80;60.00;;;;;;5033474;28;20188;-74
2021/07/25 04:20:38;;;;;;;1.17;0.70;;;15.30;59.40;;;;;;5026559;28;20690;-68
2021/07/25 04:23:05;;;;;;;2.50;0.53;;;16.20;59.10;;;;;;5027689;28;20221;-70
2021/07/25 04:25:34;;;;;;;1.93;0.50;;;16.80;57.60;;;;;;5029895;28;20188;-69
2021/07/25 04:28:03;;;;;;;3.17;0.67;;;17.30;56.90;;;;;;5027425;28;20219;-69
2021/07/25 04:30:32;;;;;;;0.70;0.50;;;17.50;56.20;;;;;;5019675;28;20678;-68
2021/07/25 04:33:01;;;;;;;0.77;0.50;;;18.00;55.60;;;;;;5023460;28;20227;-69
2021/07/25 04:35:30;;;;;;;0.57;0.57;;;17.90;55.90;;;;;;5031466;28;20769;-70
2021/07/25 04:37:58;;;;;;;0.50;0.40;;;18.50;55.70;;;;;;5025784;28;20263;-71
2021/07/25 04:40:26;;;;;;;1.73;0.50;;;18.00;54.80;;;;;;5019141;28;20291;-71
2021/07/25 04:42:56;;;;;;;1.47;0.80;;;18.00;55.20;;;;;;5022907;28;20271;-70
2021/07/25 04:45:42;;;;;;;0.63;0.50;;;17.80;55.90;;;;;;5031373;28;20184;-66
2021/07/25 04:48:33;;;;;;;2.23;0.43;;;17.60;55.50;;;;;;5020589;28;20185;-69
2021/07/25 04:51:06;;;;;;;0.80;0.57;;;18.10;55.30;;;;;;5016143;28;20219;-70
2021/07/25 04:53:40;;;;;;;1.07;0.63;;;17.90;54.70;;;;;;5033053;28;20176;-68
2021/07/25 04:56:13;;;;;;;0.60;0.40;;;17.60;55.00;;;;;;5032882;28;20180;-67
2021/07/25 04:58:50;;;;;;;0.67;0.47;;;17.40;55.40;;;;;;5027220;28;20665;-68
2021/07/25 05:01:24;;;;;;;1.30;0.50;;;17.20;56.00;;;;;;5024155;28;20261;-71
2021/07/25 05:03:51;;;;;;;1.73;0.53;;;17.00;56.90;;;;;;5025655;28;20181;-68
2021/07/25 05:06:21;;;;;;;0.50;0.47;;;17.30;57.00;;;;;;5022220;28;20197;-67
2021/07/25 05:08:49;;;;;;;0.67;0.30;;;17.50;56.60;;;;;;5030115;28;20260;-71
2021/07/25 05:11:27;;;;;;;0.63;0.40;;;17.40;56.40;;;;;;5025022;28;20185;-72
2021/07/25 05:13:59;;;;;;;0.93;0.50;;;17.30;56.30;;;;;;5021081;28;20697;-70
2021/07/25 05:16:44;;;;;;;1.17;0.47;;;17.60;57.10;;;;;;5026238;28;20197;-70
2021/07/25 05:19:26;;;;;;;0.67;0.37;;;17.40;56.30;;;;;;5032224;28;20257;-68
2021/07/25 05:22:18;;;;;;;1.10;0.53;;;17.60;56.10;;;;;;5032382;28;20286;-68
2021/07/25 05:24:47;;;;;;;1.83;0.40;;;17.60;56.50;;;;;;5019116;28;20220;-67
2021/07/25 05:27:20;;;;;;;0.83;0.53;;;17.80;56.20;;;;;;5029200;28;20267;-67
2021/07/25 05:29:49;;;;;;;0.90;0.43;;;18.00;55.70;;;;;;5022273;28;20188;-67
2021/07/25 05:32:19;;;;;;;1.13;0.50;;;17.90;55.70;;;;;;5019691;28;20756;-70
2021/07/25 05:34:46;;;;;;;1.53;0.60;;;18.10;55.80;;;;;;5027531;28;20631;-70
2021/07/25 05:37:14;;;;;;;0.73;0.50;;;17.90;55.20;;;;;;5023764;28;20187;-69
2021/07/25 05:39:41;;;;;;;0.43;0.40;;;17.80;55.70;;;;;;5031741;28;20220;-70
2021/07/25 05:42:11;;;;;;;1.23;0.60;;;17.60;55.50;;;;;;5019781;28;20196;-68
2021/07/25 05:44:38;;;;;;;3.53;0.50;;;17.60;56.10;;;;;;5031631;28;20584;-68
2021/07/25 05:47:06;;;;;;;1.57;0.57;;;17.50;55.80;;;;;;5029396;28;20192;-67
2021/07/25 05:49:33;;;;;;;1.57;0.60;;;17.60;56.60;;;;;;5014917;28;20252;-69
2021/07/25 05:52:00;;;;;;;0.60;0.40;;;17.70;55.90;;;;;;5020468;28;20299;-67
2021/07/25 05:54:28;;;;;;;1.17;0.67;;;17.90;55.20;;;;;;5018187;28;20674;-68
2021/07/25 05:56:55;;;;;;;0.57;0.57;;;18.10;55.30;;;;;;5028995;28;20291;-70
2021/07/25 05:59:23;;;;;;;2.03;0.70;;;17.80;55.50;;;;;;5014446;28;20180;-67
2021/07/25 06:01:52;;;;;;;1.17;0.50;;;17.60;56.20;;;;;;5023431;28;20213;-68
2021/07/25 06:04:19;;;;;;;1.40;0.60;;;17.80;56.40;;;;;;5012065;28;20235;-69
2021/07/25 06:06:47;;;;;;;1.73;0.70;;;17.70;56.70;;;;;;5025011;28;20189;-68
2021/07/25 06:09:14;;;;;;;2.63;0.73;;;17.70;57.70;;;;;;5027120;28;20275;-68
2021/07/25 06:11:43;;;;;;;0.70;0.50;;;18.10;56.70;;;;;;5031042;28;20272;-68
2021/07/25 06:14:11;;;;;;;2.40;0.50;;;17.90;56.80;;;;;;5030422;28;20211;-68
2021/07/25 06:16:39;;;;;;;1.53;0.67;;;17.60;56.70;;;;;;5032405;28;20181;-70
2021/07/25 06:19:06;;;;;;;1.07;0.60;;;16.80;57.30;;;;;;5026847;28;20691;-71
2021/07/25 06:21:33;;;;;;;1.23;0.63;;;16.10;57.30;;;;;;5031998;28;20212;-71
2021/07/25 06:24:01;;;;;;;1.10;0.50;;;15.70;58.40;;;;;;5024231;28;20579;-72
2021/07/25 06:26:28;;;;;;;2.73;0.60;;;15.40;58.80;;;;;;5015746;28;20196;-71
2021/07/25 06:28:56;;;;;;;0.60;0.53;;;15.10;59.80;;;;;;5013543;28;20594;-69
2021/07/25 06:31:23;;;;;;;0.93;0.63;;;14.90;60.30;;;;;;5028276;28;20220;-69
2021/07/25 06:33:50;;;;;;;1.67;0.80;;;14.70;60.70;;;;;;5021044;28;20201;-68
2021/07/25 06:36:19;;;;;;;1.93;0.70;;;14.60;61.10;;;;;;5031876;28;20179;-69
2021/07/25 06:38:47;;;;;;;0.67;0.50;;;14.40;61.60;;;;;;5027591;28;20276;-70
2021/07/25 06:41:14;;;;;;;1.87;0.90;;;14.30;61.80;;;;;;5029059;28;20651;-68
2021/07/25 06:43:41;;;;;;;1.47;0.70;;;14.20;62.30;;;;;;5030425;28;20713;-70
2021/07/25 06:46:12;;;;;;;0.83;0.63;;;14.20;62.70;;;;;;5027587;28;20193;-71
2021/07/25 06:48:40;;;;;;;3.33;0.73;;;14.10;62.70;;;;;;5026648;28;20177;-70
2021/07/25 06:51:07;;;;;;;2.90;0.90;;;14.00;63.50;;;;;;5016132;28;20279;-70
2021/07/25 06:53:35;;;;;;;1.17;0.90;;;13.90;63.10;;;;;;5032775;28;20265;-68
2021/07/25 06:56:06;;;;;;;1.27;0.90;;;13.90;64.40;;;;;;5035736;28;20687;-68
2021/07/25 06:58:34;;;;;;;2.20;0.90;;;13.80;63.00;;;;;;5025323;28;20188;-68
2021/07/25 07:01:02;;;;;;;1.10;0.87;;;13.70;63.20;;;;;;5035095;28;20564;-70
2021/07/25 07:03:30;;;;;;;1.67;1.00;;;13.70;63.60;;;;;;5019883;28;20188;-70
2021/07/25 07:05:57;;;;;;;3.40;1.43;;;13.60;64.60;;;;;;5022803;28;20184;-69
2021/07/25 07:08:24;;;;;;;3.33;0.90;;;13.50;66.30;;;;;;5028825;28;20196;-69
2021/07/25 07:10:51;;;;;;;1.20;0.87;;;13.40;65.30;;;;;;5031967;28;20192;-69
2021/07/25 07:13:20;;;;;;;1.77;1.03;;;13.30;65.60;;;;;;5021108;28;20554;-68
2021/07/25 07:15:48;;;;;;;1.23;0.90;;;13.30;66.20;;;;;;5031374;28;20189;-66
2021/07/25 07:18:17;;;;;;;2.50;1.10;;;13.30;66.70;;;;;;5032458;28;20183;-68
2021/07/25 07:20:44;;;;;;;2.93;1.40;;;13.20;66.50;;;;;;5027638;28;20224;-70
2021/07/25 07:23:15;;;;;;;3.80;1.37;;;13.20;67.00;;;;;;5034451;28;20234;-67
2021/07/25 07:25:48;;;;;;;3.13;1.07;;;13.10;67.30;;;;;;5030737;28;20196;-68
2021/07/25 07:28:17;;;;;;;3.63;1.00;;;13.10;67.70;;;;;;5030713;28;20205;-68
2021/07/25 07:30:47;;;;;;;1.87;1.03;;;13.00;67.80;;;;;;5020981;28;20258;-73
2021/07/25 07:33:22;;;;;;;3.33;1.47;;;12.90;67.90;;;;;;5002670;28;20197;-70
2021/07/25 07:35:52;;;;;;;4.43;1.87;;;12.90;68.30;;;;;;5006011;28;20188;-69
2021/07/25 07:38:21;;;;;;;2.27;1.33;;;12.90;68.40;;;;;;5000523;28;20279;-67
2021/07/25 07:40:48;;;;;;;1.97;1.43;;;12.80;68.80;;;;;;5009063;28;20251;-66
2021/07/25 07:43:21;;;;;;;3.63;2.10;;;12.80;69.30;;;;;;5014419;28;20182;-67
2021/07/25 07:45:49;;;;;;;3.90;1.97;;;12.80;70.00;;;;;;5008472;28;20186;-67
2021/07/25 07:48:19;;;;;;;5.20;1.93;;;12.70;69.70;;;;;;5004971;28;20193;-67
2021/07/25 07:50:46;;;;;;;3.03;1.53;;;12.60;70.20;;;;;;5005116;28;20276;-66
2021/07/25 07:53:13;;;;;;;2.43;1.40;;;12.60;70.90;;;;;;5004266;28;20292;-66
2021/07/25 07:55:41;;;;;;;1.33;1.00;;;12.50;70.90;;;;;;5012060;28;20193;-66
2021/07/25 07:58:08;;;;;;;4.50;2.40;;;12.50;71.40;;;;;;5014138;28;20186;-68
2021/07/25 08:00:35;;;;;;;3.23;2.13;;;12.50;72.30;;;;;;5007581;28;20710;-68
2021/07/25 08:03:05;;;;;;;3.27;1.70;;;12.50;72.00;;;;;;5014469;28;20255;-68
2021/07/25 08:05:33;;;;;;;3.00;1.60;;;12.40;72.50;;;;;;5013120;28;20260;-69
2021/07/25 08:08:00;;;;;;;5.00;1.30;;;12.30;73.30;;;;;;5010571;28;20703;-67
2021/07/25 08:10:28;;;;;;;1.80;1.27;;;12.30;74.00;;;;;;5000859;28;20177;-67
2021/07/25 08:12:55;;;;;;;5.47;3.30;;;12.20;74.50;;;;;;5004566;28;20185;-68
2021/07/25 08:15:22;;;;;;;5.77;2.27;;;12.20;75.00;;;;;;5011019;28;20184;-68
2021/07/25 08:17:50;;;;;;;5.33;2.23;;;12.20;75.20;;;;;;5005848;28;20555;-67
2021/07/25 08:20:17;;;;;;;4.67;2.77;;;12.20;75.70;;;;;;5003990;28;20259;-66
2021/07/25 08:22:45;;;;;;;5.53;3.57;;;12.20;76.00;;;;;;5007201;28;20189;-66
2021/07/25 08:25:13;;;;;;;5.80;3.27;;;12.10;76.80;;;;;;5013787;28;20639;-66
2021/07/25 08:27:40;;;;;;;4.80;2.20;;;12.10;77.60;;;;;;5009709;28;20186;-66
2021/07/25 08:30:08;;;;;;;3.80;2.00;;;12.10;77.40;;;;;;5013834;28;20596;-66
2021/07/25 08:32:35;;;;;;;5.93;2.27;;;12.10;77.40;;;;;;5018465;28;20213;-68
2021/07/25 08:35:03;;;;;;;9.47;3.97;;;12.00;78.00;;;;;;5031469;28;20586;-66
2021/07/25 08:37:30;;;;;;;11.00;5.70;;;11.90;79.50;;;;;;5026554;28;20188;-67
2021/07/25 08:39:58;;;;;;;9.07;4.37;;;11.90;79.90;;;;;;5033354;28;20235;-66
2021/07/25 08:42:26;;;;;;;6.23;3.30;;;11.80;80.20;;;;;;5024776;28;20181;-67
2021/07/25 08:44:56;;;;;;;5.20;3.00;;;11.70;81.20;;;;;;5033305;28;20184;-68
2021/07/25 08:47:29;;;;;;;5.90;2.97;;;11.80;82.50;;;;;;5025461;28;20193;-67
2021/07/25 08:50:02;;;;;;;5.70;3.47;;;11.70;83.60;;;;;;5032497;28;20234;-67
2021/07/25 08:52:38;;;;;;;11.20;6.97;;;11.70;83.90;;;;;;5023499;28;20264;-68
2021/07/25 08:55:12;;;;;;;4.77;2.70;;;11.60;84.00;;;;;;5023391;28;20663;-67
2021/07/25 08:57:42;;;;;;;5.83;2.37;;;11.60;84.40;;;;;;5021106;28;20197;-67
2021/07/25 09:00:12;;;;;;;4.20;2.57;;;11.50;86.70;;;;;;5033175;28;20234;-67
2021/07/25 09:02:40;;;;;;;6.17;3.10;;;11.40;87.00;;;;;;5033288;28;20199;-67
2021/07/25 09:05:10;;;;;;;6.83;2.63;;;11.40;87.60;;;;;;5027921;28;20204;-68
2021/07/25 09:07:40;;;;;;;6.40;2.87;;;11.30;87.80;;;;;;5032543;28;20211;-68
2021/07/25 09:10:12;;;;;;;6.83;3.47;;;11.30;89.20;;;;;;5019452;28;20185;-68
2021/07/25 09:12:40;;;;;;;4.80;3.00;;;11.30;89.80;;;;;;5022850;28;20257;-68
2021/07/25 09:15:17;;;;;;;6.10;3.20;;;11.20;90.00;;;;;;5032826;28;20176;-67
2021/07/25 09:17:47;;;;;;;9.60;3.23;;;11.20;90.20;;;;;;5025652;28;20253;-66
2021/07/25 09:20:34;;;;;;;6.60;3.47;;;11.20;90.90;;;;;;5025432;28;20215;-67
2021/07/25 09:23:09;;;;;;;4.83;3.20;;;11.10;90.80;;;;;;5021758;28;20200;-66
2021/07/25 09:25:45;;;;;;;10.27;3.73;;;11.10;90.60;;;;;;5031001;28;20287;-66
2021/07/25 09:28:14;;;;;;;5.67;2.77;;;11.10;91.20;;;;;;5023525;28;20582;-66
2021/07/25 09:30:42;;;;;;;6.47;3.47;;;11.10;90.40;;;;;;5027469;28;20247;-66
2021/07/25 09:33:47;;;;;;;8.50;3.33;;;11.10;90.90;;;;;;5030946;28;20229;-66
2021/07/25 09:36:22;;;;;;;11.30;5.23;;;11.00;91.60;;;;;;4995106;28;20609;-67
2021/07/25 09:38:50;;;;;;;9.23;4.13;;;11.00;92.00;;;;;;5011994;28;20585;-66
2021/07/25 09:41:26;;;;;;;10.23;3.83;;;10.90;91.20;;;;;;5024018;28;20241;-66
2021/07/25 09:44:08;;;;;;;5.27;2.83;;;10.80;91.30;;;;;;5030097;28;20529;-66
2021/07/25 09:47:01;;;;;;;4.87;3.10;;;10.80;91.30;;;;;;5032323;28;20195;-68
2021/07/25 09:49:42;;;;;;;4.07;2.30;;;10.80;91.30;;;;;;5015895;28;20192;-69
2021/07/25 09:52:10;;;;;;;5.83;2.53;;;10.80;91.30;;;;;;5030281;28;20204;-68
2021/07/25 09:54:37;;;;;;;4.40;1.40;;;10.80;91.10;;;;;;5024029;28;20181;-66
2021/07/25 09:57:13;;;;;;;5.77;1.80;;;10.90;90.60;;;;;;5029546;28;20192;-69
2021/07/25 09:59:41;;;;;;;3.87;1.70;;;10.90;90.90;;;;;;5027892;28;20206;-69
2021/07/25 10:02:38;;;;;;;3.70;1.50;;;10.90;90.70;;;;;;5014169;28;20666;-67
2021/07/25 10:05:19;;;;;;;3.53;1.60;;;10.90;90.70;;;;;;5018913;28;20661;-67
2021/07/25 10:07:48;;;;;;;3.23;1.70;;;10.90;90.70;;;;;;5025252;28;20338;-65
2021/07/25 10:10:17;;;;;;;3.63;2.03;;;10.90;90.70;;;;;;5030693;28;20651;-68
2021/07/25 10:12:47;;;;;;;2.47;1.40;;;10.90;91.00;;;;;;5028101;28;20253;-67
2021/07/25 10:15:16;;;;;;;3.70;1.83;;;10.80;91.10;;;;;;5029662;28;20215;-66
2021/07/25 10:17:47;;;;;;;3.07;1.50;;;10.80;91.40;;;;;;5021786;28;20224;-68
2021/07/25 10:20:17;;;;;;;4.43;1.80;;;10.80;91.60;;;;;;5031514;28;20564;-68
2021/07/25 10:22:50;;;;;;;4.27;1.33;;;10.80;91.50;;;;;;5029852;28;20192;-65
2021/07/25 10:25:18;;;;;;;2.93;1.57;;;10.80;91.50;;;;;;5032242;28;20644;-67
2021/07/25 10:27:46;;;;;;;5.03;1.70;;;10.80;91.60;;;;;;5032188;28;20323;-67
2021/07/25 10:30:14;;;;;;;3.53;1.57;;;10.80;91.30;;;;;;5032324;28;20202;-68
2021/07/25 10:32:42;;;;;;;8.57;4.43;;;10.80;91.50;;;;;;5030242;28;20574;-68
2021/07/25 10:35:17;;;;;;;3.60;1.80;;;10.90;91.60;;;;;;5029211;28;20185;-68
2021/07/25 10:37:46;;;;;;;6.83;2.40;;;10.90;91.50;;;;;;5033240;28;20195;-68
2021/07/25 10:40:14;;;;;;;5.30;2.40;;;11.00;91.40;;;;;;5035975;28;20289;-68
2021/07/25 10:42:52;;;;;;;6.80;1.70;;;11.00;91.30;;;;;;5032105;28;20191;-68
2021/07/25 10:45:21;;;;;;;4.93;1.43;;;10.90;91.50;;;;;;5033393;28;20185;-67
2021/07/25 10:47:49;;;;;;;1.80;1.30;;;11.00;91.60;;;;;;5019503;28;20798;-68
2021/07/25 10:50:18;;;;;;;4.67;1.63;;;10.90;91.90;;;;;;5028918;28;20240;-66
2021/07/25 10:53:02;;;;;;;5.00;1.50;;;10.90;91.80;;;;;;5022970;28;20208;-67
2021/07/25 10:55:41;;;;;;;3.47;1.50;;;10.90;92.40;;;;;;5020700;28;20181;-67
2021/07/25 10:58:22;;;;;;;3.13;1.20;;;10.80;92.20;;;;;;5021455;28;20191;-68
2021/07/25 11:00:52;;;;;;;3.87;1.73;;;10.80;92.20;;;;;;5021154;28;20728;-69
2021/07/25 11:03:26;;;;;;;5.30;1.50;;;10.70;92.00;;;;;;5023341;28;20174;-72
2021/07/25 11:06:02;;;;;;;2.33;1.17;;;10.70;92.00;;;;;;5032674;28;20555;-70
2021/07/25 11:08:34;;;;;;;5.00;1.70;;;10.70;91.80;;;;;;5030392;28;20183;-70
2021/07/25 11:11:21;;;;;;;3.03;1.50;;;10.70;92.10;;;;;;5014449;28;20185;-70
2021/07/25 11:13:48;;;;;;;3.43;1.33;;;10.80;92.10;;;;;;5020682;28;20185;-69
2021/07/25 11:16:31;;;;;;;3.07;1.50;;;10.80;92.00;;;;;;5035304;28;20184;-72
2021/07/25 11:19:23;;;;;;;2.80;1.13;;;10.80;91.90;;;;;;5026902;28;20187;-69
2021/07/25 11:21:53;;;;;;;2.33;1.13;;;10.80;92.20;;;;;;5029999;28;20307;-69
2021/07/25 11:24:23;;;;;;;2.77;1.50;;;10.80;92.20;;;;;;5017417;28;20219;-68
2021/07/25 11:27:04;;;;;;;6.70;3.10;;;10.90;92.30;;;;;;5029499;28;20197;-69
2021/07/25 11:29:36;;;;;;;4.10;2.77;;;10.80;92.40;;;;;;5032379;28;20191;-68
2021/07/25 11:32:04;;;;;;;5.03;2.00;;;10.90;92.30;;;;;;5032940;28;20221;-68
2021/07/25 11:34:33;;;;;;;3.40;1.50;;;10.90;92.30;;;;;;5034385;28;20184;-69
2021/07/25 11:37:06;;;;;;;4.70;1.60;;;10.80;92.30;;;;;;5031996;28;20209;-70
2021/07/25 11:39:34;;;;;;;5.10;1.83;;;10.90;92.60;;;;;;5034628;28;20611;-68
2021/07/25 11:42:08;;;;;;;5.37;1.33;;;10.90;92.40;;;;;;5033483;28;20231;-67
2021/07/25 11:44:39;;;;;;;2.27;1.17;;;10.90;92.30;;;;;;5024838;28;20665;-67
2021/07/25 11:47:07;;;;;;;5.93;1.60;;;10.90;92.70;;;;;;5029515;28;20596;-68
2021/07/25 11:49:40;;;;;;;2.90;1.57;;;11.00;93.30;;;;;;5023847;28;20576;-68
2021/07/25 11:52:13;;;;;;;6.40;1.67;;;11.00;93.10;;;;;;5022263;28;20302;-67
2021/07/25 11:54:43;;;;;;;4.97;1.70;;;11.00;93.00;;;;;;5024945;28;20253;-69
2021/07/25 11:57:22;;;;;;;3.47;1.90;;;11.00;93.20;;;;;;5021289;28;20592;-68
2021/07/25 11:59:57;;;;;;;4.73;1.50;;;11.00;93.20;;;;;;5024104;28;20632;-67
2021/07/25 12:02:27;;;;;;;3.83;1.50;;;11.00;93.10;;;;;;5027715;28;20192;-67
2021/07/25 12:04:58;;;;;;;6.17;1.47;;;11.00;93.30;;;;;;5033933;28;20192;-69
2021/07/25 12:07:46;;;;;;;2.20;1.13;;;11.00;93.40;;;;;;5032919;28;20185;-69
2021/07/25 12:10:14;;;;;;;3.20;1.40;;;11.10;93.20;;;;;;5029450;28;20601;-68
2021/07/25 12:12:43;;;;;;;6.03;1.40;;;11.10;93.20;;;;;;5021068;28;20180;-68
2021/07/25 12:15:12;;;;;;;2.50;1.10;;;11.20;92.90;;;;;;5024789;28;20180;-68
2021/07/25 12:17:44;;;;;;;3.47;1.30;;;11.20;93.10;;;;;;5033486;28;20200;-67
2021/07/25 12:20:33;;;;;;;3.27;1.40;;;11.20;93.00;;;;;;5032231;28;20227;-70
2021/07/25 12:23:07;;;;;;;3.80;1.17;;;11.30;93.00;;;;;;5025658;28;20192;-69
2021/07/25 12:25:36;;;;;;;2.83;1.20;;;11.30;92.70;;;;;;5030736;28;20249;-68
2021/07/25 12:28:14;;;;;;;4.80;1.10;;;11.30;93.10;;;;;;5028235;28;20189;-67
2021/07/25 12:30:45;;;;;;;4.93;1.33;;;11.20;93.30;;;;;;5032449;28;20195;-67
2021/07/25 12:33:22;;;;;;;5.17;1.73;;;11.20;93.60;;;;;;5033798;28;20189;-66
2021/07/25 12:35:50;;;;;;;4.40;1.50;;;11.20;93.70;;;;;;5033791;28;20627;-69
2021/07/25 12:38:20;;;;;;;4.37;1.30;;;11.10;93.70;;;;;;5033857;28;20207;-66
2021/07/25 12:40:55;;;;;;;6.00;1.50;;;11.00;94.00;;;;;;5023811;28;20339;-67
2021/07/25 12:43:26;;;;;;;2.57;1.17;;;11.00;94.00;;;;;;5033139;28;20179;-68
2021/07/25 12:45:58;;;;;;;5.30;1.73;;;11.00;94.20;;;;;;5033111;28;20180;-68
2021/07/25 12:48:31;;;;;;;3.93;1.20;;;10.90;94.70;;;;;;5025411;28;20187;-69
2021/07/25 12:53:43;;;;;;;5.80;1.40;;;10.90;94.70;;;;;;5022961;28;20198;-67
2021/07/25 12:56:21;;;;;;;5.23;1.20;;;10.90;94.60;;;;;;5033248;28;20176;-69
2021/07/25 12:58:51;;;;;;;4.50;1.27;;;10.90;95.00;;;;;;5033320;28;20183;-69
2021/07/25 13:03:57;;;;;;;5.37;1.30;;;10.90;94.50;;;;;;5028365;28;20692;-66
2021/07/25 13:06:44;;;;;;;3.43;1.30;;;11.00;94.60;;;;;;5033066;28;20169;-68
2021/07/25 13:09:19;;;;;;;2.43;1.40;;;10.90;94.40;;;;;;5032968;28;20511;-69